createdAt,value
2023-02-08T00:00:46.226Z,100562.72
2023-02-08T00:05:49.321Z,100558.34
2023-02-08T00:10:52.414Z,100558.34
2023-02-08T00:15:56.772Z,100551.41
2023-02-08T00:20:59.941Z,100555.75
2023-02-08T00:26:02.766Z,100558.34
2023-02-08T00:31:07.124Z,100557.47
2023-02-08T00:36:13.068Z,100557.47
2023-02-08T00:41:17.517Z,100550.53
2023-02-08T00:46:24.629Z,100547.03
2023-02-08T00:51:27.308Z,100544.44
2023-02-08T00:56:30.092Z,100551.34
2023-02-08T01:01:36.918Z,100541.78
2023-02-08T01:06:40.221Z,100544.38
2023-02-08T01:11:43.238Z,100553.06
2023-02-08T01:16:47.648Z,100553.94
2023-02-08T01:21:50.450Z,100547.81
2023-02-08T01:26:53.309Z,100546.09
2023-02-08T01:31:57.503Z,100542.59
2023-02-08T01:37:00.251Z,100546.94
2023-02-08T01:42:03.366Z,100541.69
2023-02-08T01:47:07.612Z,100541.69
2023-02-08T01:52:14.830Z,100537.31
2023-02-08T01:57:18.192Z,100539.06
2023-02-08T02:02:23.949Z,100532.94
2023-02-08T02:07:29.114Z,100531.19
2023-02-08T02:12:32.949Z,100528.59
2023-02-08T02:17:38.356Z,100525.97
2023-02-08T02:23:10.652Z,100521.63
2023-02-08T02:28:44.471Z,100517.28
2023-02-08T02:33:59.336Z,100513.78
2023-02-08T02:39:15.149Z,100522.41
2023-02-08T02:44:27.025Z,100523.28
2023-02-08T02:49:38.173Z,100518.97
2023-02-08T02:54:44.545Z,100512.88
2023-02-08T02:59:47.611Z,100521.59
2023-02-08T03:04:55.166Z,100524.22
2023-02-08T03:10:10.383Z,100531.16
2023-02-08T03:15:24.692Z,100523.38
2023-02-08T03:20:34.070Z,100517.28
2023-02-08T03:25:46.628Z,100518.19
2023-02-08T03:30:57.051Z,100513.81
2023-02-08T03:36:06.311Z,100515.50
2023-02-08T03:41:16.305Z,100513.72
2023-02-08T03:46:24.351Z,100521.59
2023-02-08T03:51:31.246Z,100506.78
2023-02-08T03:56:41.503Z,100516.28
2023-02-08T04:01:47.168Z,100518.00
2023-02-08T04:06:51.269Z,100519.78
2023-02-08T04:11:54.030Z,100519.75
2023-02-08T04:16:56.945Z,100525.81
2023-02-08T04:22:01.079Z,100524.94
2023-02-08T04:27:05.856Z,100520.59
2023-02-08T04:32:11.608Z,100512.75
2023-02-08T04:37:15.839Z,100519.69
2023-02-08T04:42:19.311Z,100511.84
2023-02-08T04:47:22.804Z,100507.53
2023-02-08T04:52:26.988Z,100498.84
2023-02-08T04:57:29.892Z,100506.66
2023-02-08T05:02:32.658Z,100498.81
2023-02-08T05:07:36.807Z,100494.44
2023-02-08T05:12:39.550Z,100500.50
2023-02-08T05:17:42.367Z,100498.78
2023-02-08T05:22:46.917Z,100500.56
2023-02-08T05:27:49.638Z,100496.19
2023-02-08T05:32:52.428Z,100494.47
2023-02-08T05:37:56.510Z,100500.56
2023-02-08T05:42:59.272Z,100506.66
2023-02-08T05:48:02.091Z,100520.50
2023-02-08T05:53:06.196Z,100525.69
2023-02-08T05:58:08.917Z,100515.31
2023-02-08T06:03:12.023Z,100523.13
2023-02-08T06:08:16.308Z,100520.56
2023-02-08T06:13:19.130Z,100519.69
2023-02-08T06:18:21.896Z,100523.16
2023-02-08T06:23:26.372Z,100521.41
2023-02-08T06:28:29.145Z,100528.34
2023-02-08T06:33:32.025Z,100534.44
2023-02-08T06:38:36.233Z,100529.25
2023-02-08T06:43:39.553Z,100528.41
2023-02-08T06:48:42.334Z,100535.34
2023-02-08T06:53:46.476Z,100534.47
2023-02-08T06:58:49.239Z,100528.41
2023-02-08T07:03:52.208Z,100531.06
2023-02-08T07:08:56.835Z,100536.31
2023-02-08T07:13:59.690Z,100527.75
2023-02-08T07:19:02.387Z,100529.56
2023-02-08T07:24:07.298Z,100522.69
2023-02-08T07:29:10.179Z,100520.13
2023-02-08T07:34:13.420Z,100517.53
2023-02-08T07:39:17.905Z,100514.91
2023-02-08T07:44:20.636Z,100510.53
2023-02-08T07:49:23.352Z,100515.69
2023-02-08T08:01:21.351Z,100513.72
2023-02-08T08:06:26.105Z,100504.91
2023-02-08T08:11:29.963Z,100498.72
2023-02-08T08:16:34.129Z,100494.97
2023-02-08T08:21:37.227Z,100494.88
2023-02-08T08:26:40.032Z,100490.41
2023-02-08T08:31:45.978Z,100496.41
2023-02-08T08:36:48.786Z,100491.88
2023-02-08T08:41:51.655Z,100490.78
2023-02-08T08:46:57.967Z,100491.50
2023-02-08T08:52:00.704Z,100502.56
2023-02-08T08:57:03.891Z,100497.25
2023-02-08T09:02:08.004Z,100498.88
2023-02-08T09:07:11.963Z,100488.13
2023-02-08T09:12:15.850Z,100483.47
2023-02-08T09:17:20.096Z,100486.84
2023-02-08T09:22:22.979Z,100487.44
2023-02-08T09:27:25.896Z,100484.50
2023-02-08T09:32:33.964Z,100491.00
2023-02-08T09:37:37.018Z,100500.81
2023-02-08T09:42:43.140Z,100500.72
2023-02-08T09:47:55.597Z,100505.59
2023-02-08T09:53:05.498Z,100507.69
2023-02-08T09:58:19.178Z,100504.22
2023-02-08T10:03:32.556Z,100495.78
2023-02-08T10:08:37.162Z,100491.84
2023-02-08T10:13:57.856Z,100488.25
2023-02-08T10:19:08.915Z,100476.53
2023-02-08T10:24:28.301Z,100474.25
2023-02-08T10:30:00.826Z,100464.47
2023-02-08T10:35:12.275Z,100460.81
2023-02-08T10:40:25.940Z,100468.53
2023-02-08T10:45:36.292Z,100462.88
2023-02-08T10:50:42.661Z,100472.72
2023-02-08T10:55:47.733Z,100464.75
2023-02-08T11:00:52.072Z,100459.94
2023-02-08T11:05:57.141Z,100455.28
2023-02-08T11:11:03.669Z,100451.63
2023-02-08T11:16:08.741Z,100446.94
2023-02-08T11:21:25.833Z,100435.34
2023-02-08T11:26:33.585Z,100434.06
2023-02-08T11:31:37.055Z,100426.91
2023-02-08T11:36:47.806Z,100418.50
2023-02-08T11:41:53.661Z,100414.72
2023-02-08T11:46:59.852Z,100412.50
2023-02-08T11:52:05.555Z,100405.00
2023-02-08T11:57:17.448Z,100396.78
2023-02-08T12:02:37.341Z,100389.28
2023-02-08T12:07:59.222Z,100387.16
2023-02-08T12:13:30.338Z,100390.34
2023-02-08T12:19:15.844Z,100384.53
2023-02-08T12:24:27.946Z,100389.84
2023-02-08T12:29:47.718Z,100369.41
2023-02-08T12:35:07.810Z,100363.50
2023-02-08T12:40:43.054Z,100362.94
2023-02-08T12:45:59.888Z,100353.78
2023-02-08T12:51:12.650Z,100345.38
2023-02-08T12:56:19.937Z,100343.06
2023-02-08T13:01:27.168Z,100335.91
2023-02-08T13:06:34.382Z,100322.25
2023-02-08T13:11:41.143Z,100314.97
2023-02-08T13:16:47.039Z,100313.53
2023-02-08T13:21:51.061Z,100318.00
2023-02-08T13:26:55.378Z,100308.63
2023-02-08T13:32:04.907Z,100303.13
2023-02-08T13:37:25.456Z,100289.16
2023-02-08T13:42:34.814Z,100293.75
2023-02-08T13:47:45.962Z,100287.53
2023-02-08T13:52:55.760Z,100277.97
2023-02-08T13:58:01.338Z,100284.47
2023-02-08T14:03:20.649Z,100284.06
2023-02-08T14:08:31.690Z,100279.34
2023-02-08T14:13:42.112Z,100278.03
2023-02-08T14:18:52.948Z,100273.00
2023-02-08T14:24:02.885Z,100262.28
2023-02-08T14:29:08.179Z,100261.59
2023-02-08T14:34:34.782Z,100253.03
2023-02-08T14:39:39.159Z,100254.19
2023-02-08T14:44:59.787Z,100261.75
2023-02-08T14:50:09.768Z,100247.44
2023-02-08T14:55:18.743Z,100231.69
2023-02-08T15:00:26.869Z,100224.53
2023-02-08T15:05:32.291Z,100228.22
2023-02-08T15:10:36.295Z,100239.28
2023-02-08T15:15:43.581Z,100227.66
2023-02-08T15:20:47.644Z,100227.88
2023-02-08T15:25:57.295Z,100223.22
2023-02-08T15:31:05.062Z,100225.16
2023-02-08T15:36:15.234Z,100214.81
2023-02-08T15:41:26.919Z,100210.97
2023-02-08T15:46:32.237Z,100216.50
2023-02-08T15:51:35.201Z,100215.19
2023-02-08T15:56:42.442Z,100201.25
2023-02-08T16:01:49.057Z,100190.19
2023-02-08T16:06:55.065Z,100193.16
2023-02-08T16:12:00.480Z,100190.19
2023-02-08T16:17:04.643Z,100190.28
2023-02-08T16:22:26.570Z,100187.31
2023-02-08T16:27:31.615Z,100185.06
2023-02-08T16:32:39.443Z,100187.34
2023-02-08T16:37:42.892Z,100187.81
2023-02-08T16:42:46.158Z,100184.69
2023-02-08T16:47:53.198Z,100184.22
2023-02-08T16:53:00.102Z,100178.56
2023-02-08T16:58:02.998Z,100175.56
2023-02-08T17:03:07.097Z,100177.63
2023-02-08T17:08:15.781Z,100175.31
2023-02-08T17:13:21.133Z,100165.94
2023-02-08T17:18:25.544Z,100170.59
2023-02-08T17:23:28.420Z,100169.28
2023-02-08T17:28:31.568Z,100167.78
2023-02-08T17:33:40.016Z,100175.88
2023-02-08T17:38:44.704Z,100173.44
2023-02-08T17:43:50.891Z,100172.75
2023-02-08T17:48:55.459Z,100160.59
2023-02-08T17:53:58.206Z,100153.56
2023-02-08T17:59:03.652Z,100156.50
2023-02-08T18:04:11.086Z,100145.50
2023-02-08T18:09:13.795Z,100144.03
2023-02-08T18:14:18.274Z,100158.25
2023-02-08T18:19:22.900Z,100156.63
2023-02-08T18:24:25.602Z,100158.56
2023-02-08T18:29:28.437Z,100157.00
2023-02-08T18:34:33.408Z,100158.09
2023-02-08T18:39:36.405Z,100165.22
2023-02-08T18:44:39.306Z,100147.88
2023-02-08T18:49:43.605Z,100155.09
2023-02-08T18:54:46.310Z,100156.94
2023-02-08T18:59:49.227Z,100154.34
2023-02-08T19:04:53.374Z,100164.84
2023-02-08T19:09:56.201Z,100161.47
2023-02-08T19:14:59.311Z,100172.03
2023-02-08T19:20:03.603Z,100180.84
2023-02-08T19:25:07.052Z,100170.44
2023-02-08T19:30:11.511Z,100166.19
2023-02-08T19:35:15.648Z,100172.34
2023-02-08T19:40:19.304Z,100169.81
2023-02-08T19:45:22.059Z,100162.97
2023-02-08T19:50:26.173Z,100150.84
2023-02-08T19:55:29.029Z,100148.34
2023-02-08T20:00:31.787Z,100138.81
2023-02-08T20:05:37.916Z,100134.50
2023-02-08T20:10:41.608Z,100135.44
2023-02-08T20:15:45.112Z,100132.03
2023-02-08T20:20:59.972Z,100123.34
2023-02-08T20:26:07.730Z,100132.16
2023-02-08T20:31:13.016Z,100129.56
2023-02-08T20:36:19.930Z,100133.09
2023-02-08T20:41:23.306Z,100128.00
2023-02-08T20:46:28.041Z,100128.13
2023-02-08T20:51:32.776Z,100126.47
2023-02-08T20:56:38.106Z,100121.25
2023-02-08T21:01:41.206Z,100124.84
2023-02-08T21:06:46.331Z,100125.69
2023-02-08T21:11:49.689Z,100119.63
2023-02-08T21:16:55.996Z,100104.84
2023-02-08T21:22:02.681Z,100099.59
2023-02-08T21:27:06.701Z,100098.78
2023-02-08T21:32:10.617Z,100101.44
2023-02-08T21:37:14.791Z,100084.09
2023-02-08T21:42:17.562Z,100083.25
2023-02-08T21:47:20.332Z,100070.22
2023-02-08T21:52:42.101Z,100069.41
2023-02-08T21:57:44.854Z,100057.28
2023-02-08T22:02:47.650Z,100062.50
2023-02-08T22:07:54.222Z,100050.34
2023-02-08T22:12:57.705Z,100036.38
2023-02-08T22:18:02.890Z,100038.56
2023-02-08T22:23:07.492Z,100036.50
2023-02-08T22:28:10.356Z,100038.88
2023-02-08T22:33:13.271Z,100043.16
2023-02-08T22:38:17.446Z,100044.84
2023-02-08T22:43:20.234Z,100058.56
2023-02-08T22:48:23.183Z,100059.66
2023-02-08T22:53:27.609Z,100063.94
2023-02-08T22:58:30.554Z,100077.22
2023-02-08T23:03:33.311Z,100087.59
2023-02-08T23:08:37.848Z,100082.50
2023-02-08T23:13:40.624Z,100070.19
2023-02-08T23:18:43.529Z,100070.34
2023-02-08T23:23:49.359Z,100068.75
2023-02-08T23:28:53.590Z,100068.91
2023-02-08T23:33:56.346Z,100069.88
2023-02-08T23:39:03.364Z,100062.94
2023-02-08T23:44:06.370Z,100073.50
2023-02-08T23:49:09.120Z,100075.34
2023-02-08T23:54:13.337Z,100078.91
2023-02-08T23:59:16.106Z,100084.19
